createdAt,value
2018-12-18T00:01:54.260Z,4.00
2018-12-18T00:04:22.497Z,3.99
2018-12-18T00:06:51.096Z,3.99
2018-12-18T00:09:19.276Z,4.04
2018-12-18T00:11:47.508Z,4.07
2018-12-18T00:14:15.682Z,4.10
2018-12-18T00:16:43.856Z,4.12
2018-12-18T00:19:12.084Z,4.10
2018-12-18T00:21:40.256Z,4.10
2018-12-18T00:24:08.475Z,4.12
2018-12-18T00:26:36.700Z,4.13
2018-12-18T00:29:04.920Z,4.15
2018-12-18T00:31:35.548Z,4.20
2018-12-18T00:34:03.852Z,4.20
2018-12-18T00:36:32.031Z,4.22
2018-12-18T00:39:00.216Z,4.23
2018-12-18T00:41:28.439Z,4.24
2018-12-18T00:43:56.664Z,4.25
2018-12-18T00:46:24.891Z,4.24
2018-12-18T00:48:53.120Z,4.28
2018-12-18T00:51:21.328Z,4.29
2018-12-18T00:53:49.546Z,4.25
2018-12-18T00:56:17.764Z,4.24
2018-12-18T00:58:45.976Z,4.24
2018-12-18T01:01:14.202Z,4.29
2018-12-18T01:03:42.405Z,4.30
2018-12-18T01:06:10.636Z,4.27
2018-12-18T01:08:38.818Z,4.24
2018-12-18T01:11:07.061Z,4.27
2018-12-18T01:13:35.268Z,4.22
2018-12-18T01:16:03.436Z,4.22
2018-12-18T01:18:31.668Z,4.22
2018-12-18T01:20:59.925Z,4.24
2018-12-18T01:23:28.124Z,4.25
2018-12-18T01:25:56.305Z,4.24
2018-12-18T01:28:24.528Z,4.25
2018-12-18T01:30:52.708Z,4.24
2018-12-18T01:33:20.926Z,4.27
2018-12-18T01:35:49.251Z,4.27
2018-12-18T01:38:17.455Z,4.10
2018-12-18T01:40:45.700Z,4.12
2018-12-18T01:43:13.871Z,4.19
2018-12-18T01:45:42.108Z,4.21
2018-12-18T01:48:10.293Z,4.24
2018-12-18T01:50:38.517Z,4.20
2018-12-18T01:53:06.720Z,4.17
2018-12-18T01:55:34.972Z,4.21
2018-12-18T01:58:03.149Z,4.05
2018-12-18T02:00:31.377Z,4.09
2018-12-18T02:02:59.548Z,4.11
2018-12-18T02:05:27.796Z,4.12
2018-12-18T02:07:55.977Z,4.12
2018-12-18T02:10:24.189Z,4.11
2018-12-18T02:12:52.476Z,4.11
2018-12-18T02:15:20.682Z,4.12
2018-12-18T02:17:48.858Z,4.13
2018-12-18T02:20:17.073Z,4.14
2018-12-18T02:22:45.251Z,4.18
2018-12-18T02:25:13.516Z,4.21
2018-12-18T02:27:41.732Z,4.21
2018-12-18T02:30:10.179Z,4.24
2018-12-18T02:32:38.449Z,4.24
2018-12-18T02:35:06.784Z,4.25
2018-12-18T02:37:34.966Z,4.29
2018-12-18T02:40:03.381Z,4.27
2018-12-18T02:42:31.584Z,4.31
2018-12-18T02:44:59.888Z,4.36
2018-12-18T02:47:28.120Z,4.41
2018-12-18T02:49:56.292Z,4.43
2018-12-18T02:52:24.507Z,4.41
2018-12-18T02:54:52.759Z,4.33
2018-12-18T02:57:21.008Z,4.39
2018-12-18T02:59:49.244Z,4.39
2018-12-18T03:02:17.788Z,4.37
2018-12-18T03:04:46.099Z,4.35
2018-12-18T03:07:14.276Z,4.41
2018-12-18T03:09:42.617Z,4.47
2018-12-18T03:12:10.800Z,4.50
2018-12-18T03:14:39.018Z,4.52
2018-12-18T03:17:07.206Z,4.53
2018-12-18T03:19:35.422Z,4.52
2018-12-18T03:22:03.684Z,4.43
2018-12-18T03:24:31.913Z,4.35
2018-12-18T03:27:00.164Z,4.39
2018-12-18T03:29:28.346Z,4.45
2018-12-18T03:32:00.763Z,4.40
2018-12-18T03:34:28.937Z,4.45
2018-12-18T03:36:57.169Z,4.43
2018-12-18T03:39:25.381Z,4.49
2018-12-18T03:41:53.717Z,4.48
2018-12-18T03:44:21.884Z,4.44
2018-12-18T03:46:50.405Z,4.40
2018-12-18T03:49:18.609Z,4.46
2018-12-18T03:51:46.796Z,4.44
2018-12-18T03:54:15.113Z,4.50
2018-12-18T03:56:43.347Z,4.54
2018-12-18T03:59:11.560Z,4.49
2018-12-18T04:01:39.750Z,4.49
2018-12-18T04:04:07.988Z,4.45
2018-12-18T04:06:36.208Z,4.48
2018-12-18T04:09:07.102Z,4.56
2018-12-18T04:11:37.976Z,4.53
2018-12-18T04:14:06.188Z,4.56
2018-12-18T04:16:34.430Z,4.55
2018-12-18T04:19:02.619Z,4.64
2018-12-18T04:21:30.824Z,4.69
2018-12-18T04:23:59.039Z,4.73
2018-12-18T04:26:27.284Z,4.75
2018-12-18T04:28:55.445Z,4.76
2018-12-18T04:31:23.662Z,4.71
2018-12-18T04:33:51.863Z,4.80
2018-12-18T04:36:20.062Z,4.82
2018-12-18T04:38:48.356Z,4.81
2018-12-18T04:41:16.548Z,4.84
2018-12-18T04:43:44.784Z,4.85
2018-12-18T04:46:13.000Z,4.84
2018-12-18T04:48:41.220Z,4.87
2018-12-18T04:51:09.433Z,4.88
2018-12-18T04:53:37.622Z,4.91
2018-12-18T04:56:06.040Z,4.99
2018-12-18T04:58:34.332Z,5.05
2018-12-18T05:01:02.638Z,5.14
2018-12-18T05:03:30.823Z,5.24
2018-12-18T05:05:59.055Z,5.34
2018-12-18T05:08:27.220Z,5.39
2018-12-18T05:10:55.448Z,5.50
2018-12-18T05:13:23.625Z,5.58
2018-12-18T05:15:51.849Z,5.64
2018-12-18T05:18:20.028Z,5.70
2018-12-18T05:20:48.267Z,5.77
2018-12-18T05:23:16.487Z,5.80
2018-12-18T05:25:44.669Z,5.86
2018-12-18T05:28:12.848Z,5.89
2018-12-18T05:30:41.088Z,5.92
2018-12-18T05:33:09.312Z,5.95
2018-12-18T05:35:37.532Z,5.93
2018-12-18T05:38:05.720Z,6.00
2018-12-18T05:40:33.888Z,6.04
2018-12-18T05:43:02.164Z,6.05
2018-12-18T05:45:30.332Z,6.04
2018-12-18T05:47:58.548Z,6.07
2018-12-18T05:50:26.773Z,6.04
2018-12-18T05:52:54.929Z,6.08
2018-12-18T05:55:23.152Z,6.04
2018-12-18T05:57:51.320Z,6.05
2018-12-18T06:00:19.513Z,6.09
2018-12-18T06:02:47.872Z,6.10
2018-12-18T06:05:16.073Z,6.02
2018-12-18T06:07:44.241Z,5.98
2018-12-18T06:10:12.464Z,5.99
2018-12-18T06:12:40.634Z,5.99
2018-12-18T06:15:08.812Z,5.96
2018-12-18T06:17:37.049Z,5.97
2018-12-18T06:20:05.564Z,5.93
2018-12-18T06:22:33.808Z,5.95
2018-12-18T06:25:02.000Z,5.94
2018-12-18T06:27:30.224Z,5.90
2018-12-18T06:29:58.456Z,5.85
2018-12-18T06:32:26.684Z,5.88
2018-12-18T06:34:54.897Z,5.87
2018-12-18T06:37:23.061Z,5.86
2018-12-18T06:39:51.291Z,5.79
2018-12-18T06:42:19.580Z,5.77
2018-12-18T06:44:47.805Z,5.76
2018-12-18T06:47:16.022Z,5.74
2018-12-18T06:49:44.217Z,5.68
2018-12-18T06:52:12.429Z,5.66
2018-12-18T06:54:40.680Z,5.64
2018-12-18T06:57:08.862Z,5.61
2018-12-18T06:59:37.035Z,5.64
2018-12-18T07:02:05.377Z,5.64
2018-12-18T07:04:33.679Z,5.63
2018-12-18T07:07:01.880Z,5.60
2018-12-18T07:09:30.124Z,5.65
2018-12-18T07:11:58.304Z,5.64
2018-12-18T07:14:26.551Z,5.60
2018-12-18T07:16:54.733Z,5.60
2018-12-18T07:19:22.949Z,5.59
2018-12-18T07:21:51.159Z,5.61
2018-12-18T07:24:19.492Z,5.62
2018-12-18T07:26:47.668Z,5.52
2018-12-18T07:29:15.913Z,5.58
2018-12-18T07:31:44.132Z,5.59
2018-12-18T07:34:12.426Z,5.60
2018-12-18T07:36:40.632Z,5.60
2018-12-18T07:39:09.243Z,5.59
2018-12-18T07:41:37.439Z,5.52
2018-12-18T07:44:05.692Z,5.53
2018-12-18T07:46:33.908Z,5.52
2018-12-18T07:49:02.080Z,5.48
2018-12-18T07:51:30.289Z,5.49
2018-12-18T07:53:58.469Z,5.53
2018-12-18T07:56:26.696Z,5.54
2018-12-18T07:58:54.971Z,5.53
2018-12-18T08:01:23.181Z,5.58
2018-12-18T08:03:51.387Z,5.60
2018-12-18T08:06:19.560Z,5.61
2018-12-18T08:08:47.786Z,5.61
2018-12-18T08:11:15.987Z,5.59
2018-12-18T08:13:44.200Z,5.62
2018-12-18T08:16:12.476Z,5.68
2018-12-18T08:18:40.656Z,5.67
2018-12-18T08:21:08.920Z,5.73
2018-12-18T08:23:37.144Z,5.73
2018-12-18T08:26:05.415Z,5.73
2018-12-18T08:28:33.589Z,5.74
2018-12-18T08:31:01.806Z,5.80
2018-12-18T08:33:30.068Z,5.87
2018-12-18T08:35:58.263Z,5.85
2018-12-18T08:38:26.444Z,5.81
2018-12-18T08:40:54.712Z,5.84
2018-12-18T08:43:22.920Z,5.85
2018-12-18T08:45:51.084Z,5.84
2018-12-18T08:48:19.305Z,5.88
2018-12-18T08:50:47.478Z,5.82
2018-12-18T08:53:15.676Z,5.90
2018-12-18T08:55:44.011Z,5.93
2018-12-18T08:58:12.192Z,6.01
2018-12-18T09:00:40.454Z,6.02
2018-12-18T09:03:08.612Z,6.11
2018-12-18T09:05:42.982Z,6.19
2018-12-18T09:08:07.149Z,6.22
2018-12-18T09:10:39.777Z,6.30
2018-12-18T09:13:05.683Z,6.31
2018-12-18T09:15:39.161Z,6.34
2018-12-18T09:18:07.339Z,6.40
2018-12-18T09:20:35.512Z,6.49
2018-12-18T09:23:03.733Z,6.57
2018-12-18T09:25:32.048Z,6.60
2018-12-18T09:28:00.268Z,6.75
2018-12-18T09:30:28.476Z,6.80
2018-12-18T09:32:56.682Z,6.76
2018-12-18T09:35:24.864Z,6.69
2018-12-18T09:37:58.305Z,6.69
2018-12-18T09:40:28.470Z,6.65
2018-12-18T09:43:01.992Z,6.56
2018-12-18T09:45:30.192Z,6.67
2018-12-18T09:47:58.364Z,6.65
2018-12-18T09:50:26.576Z,6.56
2018-12-18T09:52:54.748Z,6.64
2018-12-18T09:55:23.056Z,6.67
2018-12-18T09:57:56.512Z,6.67
2018-12-18T10:00:24.712Z,6.74
2018-12-18T10:02:52.875Z,6.73
2018-12-18T10:05:21.092Z,6.66
2018-12-18T10:07:49.348Z,6.69
2018-12-18T10:10:17.592Z,6.75
2018-12-18T10:12:51.113Z,6.80
2018-12-18T10:15:19.319Z,6.76
2018-12-18T10:17:47.490Z,6.81
2018-12-18T10:20:15.701Z,6.88
2018-12-18T10:22:43.904Z,6.93
2018-12-18T10:25:12.125Z,6.99
2018-12-18T10:27:40.344Z,6.95
2018-12-18T10:30:08.828Z,6.99
2018-12-18T10:32:37.099Z,7.00
2018-12-18T10:35:05.848Z,6.99
2018-12-18T10:37:34.060Z,6.98
2018-12-18T10:40:02.280Z,6.97
2018-12-18T10:42:30.483Z,7.04
2018-12-18T10:44:58.652Z,7.05
2018-12-18T10:47:26.860Z,6.93
2018-12-18T10:49:55.059Z,6.99
2018-12-18T10:52:23.229Z,7.03
2018-12-18T10:54:52.492Z,7.09
2018-12-18T10:57:20.814Z,7.06
2018-12-18T10:59:49.056Z,7.10
2018-12-18T11:02:17.232Z,7.09
2018-12-18T11:04:45.435Z,7.08
2018-12-18T11:07:13.606Z,7.09
2018-12-18T11:09:41.821Z,7.06
2018-12-18T11:12:10.043Z,7.12
2018-12-18T11:14:38.216Z,7.14
2018-12-18T11:17:06.496Z,7.26
2018-12-18T11:19:34.699Z,7.28
2018-12-18T11:22:02.875Z,7.32
2018-12-18T11:24:31.101Z,7.38
2018-12-18T11:26:59.364Z,7.38
2018-12-18T11:29:27.564Z,7.41
2018-12-18T11:31:55.780Z,7.43
2018-12-18T11:34:23.991Z,7.43
2018-12-18T11:36:52.192Z,7.43
2018-12-18T11:39:20.401Z,7.44
2018-12-18T11:41:48.613Z,7.41
2018-12-18T11:44:16.771Z,7.43
2018-12-18T11:46:45.018Z,7.43
2018-12-18T11:49:13.182Z,7.44
2018-12-18T11:51:41.401Z,7.45
2018-12-18T11:54:09.660Z,7.44
2018-12-18T11:56:37.875Z,7.43
2018-12-18T11:59:06.049Z,7.40
2018-12-18T12:01:34.214Z,7.45
2018-12-18T12:04:02.433Z,7.44
2018-12-18T12:06:30.716Z,7.44
2018-12-18T12:08:58.937Z,7.40
2018-12-18T12:11:27.117Z,7.37
2018-12-18T12:13:55.284Z,7.41
2018-12-18T12:16:23.497Z,7.42
2018-12-18T12:18:51.699Z,7.45
2018-12-18T12:21:19.980Z,7.43
2018-12-18T12:23:48.187Z,7.50
2018-12-18T12:26:21.579Z,7.52
2018-12-18T12:28:49.791Z,7.53
2018-12-18T12:31:18.012Z,7.53
2018-12-18T12:33:46.184Z,7.58
2018-12-18T12:36:14.385Z,7.59
2018-12-18T12:38:42.549Z,7.60
2018-12-18T12:41:10.775Z,7.61
2018-12-18T12:43:38.944Z,7.61
2018-12-18T12:46:07.191Z,7.62
2018-12-18T12:48:40.708Z,7.54
2018-12-18T12:51:08.925Z,7.48
2018-12-18T12:53:37.092Z,7.49
2018-12-18T12:56:05.303Z,7.52
2018-12-18T12:58:33.468Z,7.54
2018-12-18T13:01:01.672Z,7.52
2018-12-18T13:03:29.844Z,7.51
2018-12-18T13:05:58.060Z,7.52
2018-12-18T13:08:26.227Z,7.48
2018-12-18T13:10:54.437Z,7.51
2018-12-18T13:13:22.645Z,7.52
2018-12-18T13:15:50.840Z,7.54
2018-12-18T13:18:19.041Z,7.56
2018-12-18T13:20:47.361Z,7.57
2018-12-18T13:23:15.531Z,7.58
2018-12-18T13:25:43.733Z,7.57
2018-12-18T13:28:11.910Z,7.58
2018-12-18T13:30:40.124Z,7.60
2018-12-18T13:33:08.340Z,7.64
2018-12-18T13:35:36.527Z,7.66
2018-12-18T13:38:05.095Z,7.68
2018-12-18T13:40:33.308Z,7.70
2018-12-18T13:43:01.530Z,7.70
2018-12-18T13:45:29.736Z,7.67
2018-12-18T13:47:57.909Z,7.64
2018-12-18T13:50:26.111Z,7.69
2018-12-18T13:52:54.361Z,7.73
2018-12-18T13:55:22.700Z,7.74
2018-12-18T13:57:50.952Z,7.77
2018-12-18T14:00:19.170Z,7.72
2018-12-18T14:02:47.339Z,7.71
2018-12-18T14:05:15.513Z,7.62
2018-12-18T14:07:43.728Z,7.66
2018-12-18T14:10:12.032Z,7.61
2018-12-18T14:12:40.245Z,7.57
2018-12-18T14:15:08.836Z,7.53
2018-12-18T14:17:37.044Z,7.51
2018-12-18T14:20:05.880Z,7.44
2018-12-18T14:22:34.053Z,7.37
2018-12-18T14:25:02.216Z,7.32
2018-12-18T14:27:30.457Z,7.28
2018-12-18T14:29:58.655Z,7.30
2018-12-18T14:32:26.832Z,7.29
2018-12-18T14:34:55.140Z,7.30
2018-12-18T14:37:23.352Z,7.25
2018-12-18T14:39:51.557Z,7.27
2018-12-18T14:42:19.750Z,7.24
2018-12-18T14:44:47.960Z,7.23
2018-12-18T14:47:16.164Z,7.21
2018-12-18T14:49:44.376Z,7.17
2018-12-18T14:52:12.584Z,7.13
2018-12-18T14:54:40.849Z,7.15
2018-12-18T14:57:09.067Z,7.09
2018-12-18T14:59:37.489Z,7.09
2018-12-18T15:02:05.652Z,7.06
2018-12-18T15:04:33.896Z,7.06
2018-12-18T15:07:03.033Z,7.10
2018-12-18T15:09:31.508Z,7.02
2018-12-18T15:11:59.681Z,6.97
2018-12-18T15:14:27.892Z,6.96
2018-12-18T15:16:56.067Z,6.96
2018-12-18T15:19:24.361Z,6.95
2018-12-18T15:21:52.583Z,6.98
2018-12-18T15:24:20.748Z,6.96
2018-12-18T15:26:49.008Z,6.96
2018-12-18T15:29:17.185Z,6.94
2018-12-18T15:31:45.344Z,6.95
2018-12-18T15:34:13.557Z,6.91
2018-12-18T15:36:41.783Z,6.90
2018-12-18T15:39:10.006Z,6.93
2018-12-18T15:41:38.181Z,6.91
2018-12-18T15:44:06.496Z,6.87
2018-12-18T15:46:34.731Z,6.85
2018-12-18T15:49:02.900Z,6.89
2018-12-18T15:51:31.068Z,6.89
2018-12-18T15:53:59.361Z,6.95
2018-12-18T15:56:27.556Z,6.95
2018-12-18T15:58:55.769Z,6.97
2018-12-18T16:01:24.343Z,6.93
2018-12-18T16:03:52.545Z,6.94
2018-12-18T16:06:20.760Z,6.92
2018-12-18T16:08:48.940Z,6.95
2018-12-18T16:11:17.156Z,6.97
2018-12-18T16:13:45.424Z,6.99
2018-12-18T16:16:13.796Z,7.01
2018-12-18T16:18:42.000Z,6.94
2018-12-18T16:21:10.181Z,6.95
2018-12-18T16:23:38.390Z,6.92
2018-12-18T16:26:06.609Z,6.94
2018-12-18T16:28:34.771Z,6.96
2018-12-18T16:31:02.992Z,6.99
2018-12-18T16:33:31.196Z,7.02
2018-12-18T16:35:59.454Z,7.02
2018-12-18T16:38:27.620Z,7.02
2018-12-18T16:40:55.792Z,6.95
2018-12-18T16:43:24.014Z,7.01
2018-12-18T16:45:52.195Z,6.97
2018-12-18T16:48:20.404Z,6.97
2018-12-18T16:50:48.694Z,6.97
2018-12-18T16:53:16.927Z,6.93
2018-12-18T16:55:45.161Z,6.96
2018-12-18T16:58:13.337Z,6.94
2018-12-18T17:00:41.548Z,6.90
2018-12-18T17:03:09.716Z,6.88
2018-12-18T17:05:37.937Z,6.84
2018-12-18T17:08:06.103Z,6.88
2018-12-18T17:10:34.683Z,6.89
2018-12-18T17:13:02.861Z,6.93
2018-12-18T17:15:31.116Z,6.90
2018-12-18T17:17:59.358Z,6.90
2018-12-18T17:20:27.620Z,6.88
2018-12-18T17:22:55.795Z,6.87
2018-12-18T17:25:23.964Z,6.87
2018-12-18T17:27:52.180Z,6.84
2018-12-18T17:30:20.353Z,6.87
2018-12-18T17:32:48.561Z,6.89
2018-12-18T17:35:16.725Z,6.86
2018-12-18T17:37:44.984Z,6.84
2018-12-18T17:40:13.153Z,6.83
2018-12-18T17:42:41.362Z,6.83
2018-12-18T17:45:09.532Z,6.79
2018-12-18T17:47:37.748Z,6.68
2018-12-18T17:50:07.144Z,6.62
2018-12-18T17:52:35.356Z,6.50
2018-12-18T17:55:03.753Z,6.43
2018-12-18T17:57:31.923Z,6.40
2018-12-18T18:00:00.142Z,6.41
2018-12-18T18:02:28.556Z,6.40
2018-12-18T18:04:56.749Z,6.32
2018-12-18T18:07:24.951Z,6.32
2018-12-18T18:09:53.128Z,6.31
2018-12-18T18:12:21.336Z,6.28
2018-12-18T18:14:49.507Z,6.27
2018-12-18T18:17:17.708Z,6.30
2018-12-18T18:19:46.128Z,6.29
2018-12-18T18:22:14.328Z,6.31
2018-12-18T18:24:42.501Z,6.27
2018-12-18T18:27:10.792Z,6.24
2018-12-18T18:29:38.965Z,6.26
2018-12-18T18:32:07.178Z,6.22
2018-12-18T18:34:35.392Z,6.28
2018-12-18T18:37:03.612Z,6.22
2018-12-18T18:39:31.788Z,6.25
2018-12-18T18:41:59.952Z,6.24
2018-12-18T18:44:28.156Z,6.23
2018-12-18T18:46:56.331Z,6.28
2018-12-18T18:49:24.552Z,6.29
2018-12-18T18:51:52.716Z,6.35
2018-12-18T18:54:20.887Z,6.35
2018-12-18T18:56:49.113Z,6.35
2018-12-18T18:59:17.272Z,6.35
2018-12-18T19:01:45.501Z,6.36
2018-12-18T19:04:13.717Z,6.33
2018-12-18T19:06:42.130Z,6.34
2018-12-18T19:09:10.342Z,6.32
2018-12-18T19:11:38.553Z,6.25
2018-12-18T19:14:06.749Z,6.23
2018-12-18T19:16:34.955Z,6.28
2018-12-18T19:19:03.327Z,6.20
2018-12-18T19:21:31.496Z,6.21
2018-12-18T19:23:59.661Z,6.23
2018-12-18T19:26:27.889Z,6.27
2018-12-18T19:28:56.062Z,6.26
2018-12-18T19:31:24.245Z,6.25
2018-12-18T19:33:52.448Z,6.26
2018-12-18T19:36:20.637Z,6.28
2018-12-18T19:38:48.836Z,6.23
2018-12-18T19:41:17.029Z,6.29
2018-12-18T19:43:45.960Z,6.25
2018-12-18T19:46:14.277Z,6.21
2018-12-18T19:48:42.656Z,6.27
2018-12-18T19:51:10.864Z,6.22
2018-12-18T19:53:39.116Z,6.11
2018-12-18T19:56:07.333Z,6.01
2018-12-18T19:58:35.505Z,5.88
2018-12-18T20:01:03.824Z,5.79
2018-12-18T20:03:31.996Z,5.70
2018-12-18T20:06:00.200Z,5.63
2018-12-18T20:08:28.360Z,5.53
2018-12-18T20:10:56.592Z,5.47
2018-12-18T20:13:24.764Z,5.41
2018-12-18T20:15:52.986Z,5.30
2018-12-18T20:18:21.196Z,5.25
2018-12-18T20:20:49.448Z,5.17
2018-12-18T20:23:17.668Z,5.16
2018-12-18T20:25:46.136Z,5.10
2018-12-18T20:28:14.315Z,5.05
2018-12-18T20:30:42.532Z,4.99
2018-12-18T20:33:10.700Z,5.00
2018-12-18T20:35:38.898Z,4.92
2018-12-18T20:38:07.120Z,4.95
2018-12-18T20:40:35.297Z,4.89
2018-12-18T20:43:03.564Z,4.85
2018-12-18T20:45:31.776Z,4.86
2018-12-18T20:48:00.852Z,4.79
2018-12-18T20:50:29.077Z,4.76
2018-12-18T20:52:57.296Z,4.74
2018-12-18T20:55:25.455Z,4.71
2018-12-18T20:57:53.629Z,4.73
2018-12-18T21:00:21.844Z,4.76
2018-12-18T21:02:50.028Z,4.74
2018-12-18T21:05:18.336Z,4.69
2018-12-18T21:07:47.152Z,4.69
2018-12-18T21:10:15.355Z,4.66
2018-12-18T21:12:43.669Z,4.65
2018-12-18T21:15:11.929Z,4.67
2018-12-18T21:17:40.106Z,4.64
2018-12-18T21:20:08.925Z,4.61
2018-12-18T21:22:37.097Z,4.54
2018-12-18T21:25:06.132Z,4.58
2018-12-18T21:27:34.384Z,4.58
2018-12-18T21:30:02.709Z,4.56
2018-12-18T21:32:31.000Z,4.56
2018-12-18T21:34:59.220Z,4.53
2018-12-18T21:37:27.412Z,4.53
2018-12-18T21:39:55.592Z,4.52
2018-12-18T21:42:23.808Z,4.48
2018-12-18T21:44:52.220Z,4.48
2018-12-18T21:47:20.400Z,4.48
2018-12-18T21:49:48.669Z,4.47
2018-12-18T21:52:16.980Z,4.45
2018-12-18T21:54:45.197Z,4.44
2018-12-18T21:57:13.400Z,4.41
2018-12-18T21:59:41.604Z,4.40
2018-12-18T22:02:09.804Z,4.34
2018-12-18T22:04:38.031Z,4.29
2018-12-18T22:07:05.968Z,4.26
2018-12-18T22:09:34.141Z,4.26
2018-12-18T22:12:02.348Z,4.23
2018-12-18T22:14:30.564Z,4.20
2018-12-18T22:16:58.776Z,4.17
2018-12-18T22:19:26.983Z,4.13
2018-12-18T22:21:55.208Z,4.11
2018-12-18T22:24:23.426Z,4.09
2018-12-18T22:26:51.599Z,4.08
2018-12-18T22:29:19.768Z,4.09
2018-12-18T22:31:47.976Z,4.06
2018-12-18T22:34:16.152Z,4.05
2018-12-18T22:36:44.357Z,4.03
2018-12-18T22:39:12.521Z,4.02
2018-12-18T22:41:40.729Z,3.96
2018-12-18T22:44:09.027Z,3.92
2018-12-18T22:46:37.231Z,3.92
2018-12-18T22:49:05.433Z,3.91
2018-12-18T22:51:33.698Z,3.91
2018-12-18T22:54:01.872Z,3.88
2018-12-18T22:56:30.056Z,3.90
2018-12-18T22:58:58.272Z,3.90
2018-12-18T23:01:31.781Z,3.86
2018-12-18T23:03:59.997Z,3.90
2018-12-18T23:06:28.201Z,3.86
2018-12-18T23:08:56.400Z,3.87
2018-12-18T23:11:24.572Z,3.91
2018-12-18T23:13:52.792Z,3.89
2018-12-18T23:16:20.972Z,3.90
2018-12-18T23:18:49.146Z,3.89
2018-12-18T23:21:17.371Z,3.87
2018-12-18T23:23:45.549Z,3.82
2018-12-18T23:26:13.716Z,3.80
2018-12-18T23:28:41.919Z,3.74
2018-12-18T23:31:10.237Z,3.76
2018-12-18T23:33:38.408Z,3.78
2018-12-18T23:36:06.620Z,3.75
2018-12-18T23:38:34.836Z,3.70
2018-12-18T23:41:03.198Z,3.72
2018-12-18T23:43:31.425Z,3.65
2018-12-18T23:45:59.604Z,3.59
2018-12-18T23:48:27.788Z,3.56
2018-12-18T23:50:56.000Z,3.51
2018-12-18T23:53:24.223Z,3.44
2018-12-18T23:55:52.388Z,3.44
2018-12-18T23:58:20.717Z,3.42
